• Join FlightAware (Why Join?)
  • Login
  • US Flag 
11:42AM EDT


 

Airport Tracker/Info


-or-


 

Live Flight TrackerFlight Track Log ✈ SLQ301 ✈ 28-Feb-2012 ✈ CYYG - CYQY

Flight Track Log - Related Links

Times and Time Zones

All times are in EST time to prevent confusion due to time zone crossing. See the SLQ301 flight status page for this flight to view local times or setup timezone preferences in your user account.

Time Position Orientation Groundspeed Altitude Reporting Facility
EST Latitude Longitude Course Direction KTS MPH feet Rate Location/Type
06:08AM 46.1980 -62.2530 284° West  Level FlightAware Approximate
06:10AM 46.3333 -63.0833 90° East 90 104 2,100  Level Moncton Center
06:11AM 46.3333 -63.0333 90° East 100 115 3,000 900 Climbing Moncton Center
06:12AM 46.3333 -63.0167 90° East 110 127 3,900 900 Climbing Moncton Center
06:13AM 46.3333 -62.9667 90° East 120 138 4,800 900 Climbing Moncton Center
06:14AM 46.3333 -62.9167 90° East 120 138 5,700 900 Climbing Moncton Center
06:15AM 46.3333 -62.8500 116° Southeast 140 161 6,600 600 Climbing Moncton Center
06:16AM 46.3167 -62.8000 90° East 150 173 7,000 180 Climbing Moncton Center
06:17AM 46.3167 -62.7333 90° East 170 196 7,000  Level Moncton Center
06:18AM 46.3167 -62.6500 90° East 180 207 7,000  Level Moncton Center
06:19AM 46.3167 -62.5833 106° East 180 207 7,000  Level Moncton Center
06:20AM 46.3000 -62.5000 90° East 180 207 7,000  Level Moncton Center
06:21AM 46.3000 -62.4333 90° East 180 207 7,000  Level Moncton Center
06:22AM 46.3000 -62.3667 106° East 180 207 7,000  Level Moncton Center
06:23AM 46.2833 -62.2833 90° East 180 207 7,000  Level Moncton Center
06:24AM 46.2833 -62.2167 90° East 180 207 7,000  Level Moncton Center
06:25AM 46.2833 -62.1667 90° East 170 196 7,000  Level Moncton Center
06:26AM 46.2833 -62.1000 104° East 170 196 7,000  Level Moncton Center
06:27AM 46.2667 -62.0000 90° East 190 219 7,000  Level Moncton Center
06:28AM 46.2667 -61.9500 90° East 180 207 7,000  Level Moncton Center
06:29AM 46.2667 -61.8833 90° East 180 207 7,000  Level Moncton Center
06:30AM 46.2667 -61.8000 90° East 180 207 7,000  Level Moncton Center
06:31AM 46.2667 -61.7333 90° East 170 196 7,000  Level Moncton Center
06:32AM 46.2667 -61.6667 106° East 170 196 7,000  Level Moncton Center
06:33AM 46.2500 -61.5833 110° East 170 196 7,000  Level Moncton Center
06:34AM 46.2333 -61.5167 90° East 170 196 7,000 180 Level Moncton Center
06:35AM 46.2333 -61.4667 110° East 160 184 7,400 420 Climbing Moncton Center
06:36AM 46.2167 -61.4000 110° East 160 184 7,900 360 Climbing Moncton Center
06:37AM 46.2000 -61.3333 90° East 160 184 8,200 120 Climbing Moncton Center
06:38AM 46.2000 -61.2833 106° East 170 196 8,200  Level Moncton Center
06:39AM 46.1833 -61.2000 90° East 170 196 8,200  Level Moncton Center
06:40AM 46.1833 -61.1333 110° East 170 196 8,200  Level Moncton Center
06:41AM 46.1667 -61.0667 90° East 170 196 8,200 -180 Level Moncton Center
06:42AM 46.1667 -60.9833 126° Southeast 180 207 7,900 -420 Descending Moncton Center
06:43AM 46.1333 -60.9167 90° East 180 207 7,400 -600 Descending Moncton Center
06:44AM 46.1333 -60.8500 110° East 190 219 6,800 -600 Descending Moncton Center
06:45AM 46.1167 -60.7833 90° East 190 219 6,200 -600 Descending Moncton Center
06:46AM 46.1167 -60.7000 110° East 180 207 5,600 -660 Descending Moncton Center
06:47AM 46.1000 -60.6333 90° East 180 207 4,900 -660 Descending Moncton Center
06:48AM 46.1000 -60.5667 116° Southeast 170 196 4,300 -660 Descending Moncton Center
06:49AM 46.0833 -60.5167 106° East 160 184 3,600 -600 Descending Moncton Center
06:50AM 46.0667 -60.4333 90° East 160 184 3,200 -480 Descending Moncton Center
06:51AM 46.0667 -60.4000 106° East 160 184 2,700 -360 Descending Moncton Center
06:52AM 46.0500 -60.3167 90° East 150 173 2,500 -120 Descending Moncton Center
06:53AM 46.0500 -60.2667 126° Southeast 140 161 2,500 -180 Level Moncton Center
06:54AM 46.0333 -60.2333 64° Northeast 140 161 2,200 -240 Descending Moncton Center
06:55AM 46.0500 -60.1833 64° Northeast 150 173 2,100  Descending Moncton Center
06:56AM 46.0667 -60.1333 35° Northeast 150 173 2,200 -240 Climbing Moncton Center
06:57AM 46.1000 -60.1000 46° Northeast 140 161 1,700 -720 Descending Moncton Center
06:58AM 46.1333 -60.0500 54° Northeast 140 161 800 -720 Descending Moncton Center
06:59AM 46.1500 -60.0167 54° Northeast 130 150 300 -540 Descending Moncton Center